Time;durP1;ratioP1;P1;durP2;ratioP2;P2;SDS_P1;SDS_P2;PMS_P1;PMS_P2;Temp;Humidity;BMP_temperature;BMP_pressure;BME280_temperature;BME280_humidity;BME280_pressure;Samples;Min_cycle;Max_cycle;Signal;HPM_P1;HPM_P2
2024/01/01 00:01:56;;;;;;;13.47;10.47;;;8.80;81.10;;;;;;4968730;28;20252;-79
2024/01/01 00:04:26;;;;;;;10.07;9.23;;;8.80;81.00;;;;;;4972127;28;20598;-80
2024/01/01 00:06:54;;;;;;;8.87;7.27;;;8.70;81.00;;;;;;4971951;28;20198;-80
2024/01/01 00:09:24;;;;;;;16.00;8.13;;;8.80;80.90;;;;;;4963329;28;20212;-79
2024/01/01 00:11:52;;;;;;;16.63;8.97;;;8.70;80.90;;;;;;4967761;28;20206;-80
2024/01/01 00:14:22;;;;;;;11.23;7.70;;;8.70;80.80;;;;;;4967939;28;20198;-80
2024/01/01 00:16:51;;;;;;;8.23;7.50;;;8.70;80.80;;;;;;4975826;28;20225;-80
2024/01/01 00:19:20;;;;;;;8.57;7.57;;;8.70;80.70;;;;;;4971377;28;20304;-80
2024/01/01 00:21:48;;;;;;;9.83;5.17;;;8.70;80.80;;;;;;4970691;28;20206;-80
2024/01/01 00:24:17;;;;;;;12.13;10.90;;;8.70;80.70;;;;;;4973539;28;20676;-80
2024/01/01 00:26:46;;;;;;;5.67;5.27;;;8.70;80.70;;;;;;4969365;28;20293;-82
2024/01/01 00:29:14;;;;;;;13.60;9.60;;;8.70;80.60;;;;;;4969177;28;20212;-81
2024/01/01 00:31:56;;;;;;;20.17;8.33;;;8.70;80.60;;;;;;4974665;28;20209;-81
2024/01/01 00:34:25;;;;;;;22.85;9.52;;;8.70;80.50;;;;;;4967913;28;20442;-82
2024/01/01 00:36:53;;;;;;;10.23;8.03;;;8.70;80.60;;;;;;4971087;28;20262;-81
2024/01/01 00:39:22;;;;;;;9.27;7.17;;;8.70;80.60;;;;;;4964194;28;20226;-81
2024/01/01 00:41:50;;;;;;;7.77;7.00;;;8.70;80.40;;;;;;4967528;28;20204;-82
2024/01/01 00:44:19;;;;;;;10.33;8.97;;;8.70;80.20;;;;;;4966917;28;20202;-80
2024/01/01 00:46:48;;;;;;;12.23;10.73;;;8.60;80.10;;;;;;4966493;28;20249;-80
2024/01/01 00:49:18;;;;;;;21.97;9.73;;;8.60;80.00;;;;;;4968490;28;20208;-80
2024/01/01 00:51:47;;;;;;;14.37;10.47;;;8.50;79.90;;;;;;4964803;28;20198;-81
2024/01/01 00:54:15;;;;;;;18.30;11.73;;;8.50;79.80;;;;;;4967272;28;20725;-80
2024/01/01 00:56:44;;;;;;;13.80;8.47;;;8.50;79.80;;;;;;4965840;28;20658;-80
2024/01/01 00:59:12;;;;;;;12.23;10.30;;;8.40;79.80;;;;;;4969310;28;20222;-79
2024/01/01 01:01:41;;;;;;;14.63;9.67;;;8.40;79.80;;;;;;4966243;28;20785;-79
2024/01/01 01:04:10;;;;;;;19.83;9.40;;;8.40;79.70;;;;;;4967638;28;20681;-78
2024/01/01 01:06:40;;;;;;;12.20;8.23;;;8.30;79.60;;;;;;4968116;28;20288;-80
2024/01/01 01:09:09;;;;;;;12.73;9.53;;;8.30;79.60;;;;;;4967240;28;20215;-79
2024/01/01 01:11:40;;;;;;;10.33;8.70;;;8.20;79.60;;;;;;4971804;28;21086;-79
2024/01/01 01:14:09;;;;;;;20.17;12.17;;;8.20;79.50;;;;;;4972849;28;20212;-80
2024/01/01 01:16:37;;;;;;;7.80;7.10;;;8.20;79.50;;;;;;4970463;28;20206;-81
2024/01/01 01:19:07;;;;;;;18.83;9.40;;;8.20;79.50;;;;;;4972564;28;20482;-81
2024/01/01 01:21:35;;;;;;;16.23;6.97;;;8.10;79.50;;;;;;4969190;28;20257;-80
2024/01/01 01:24:11;;;;;;;9.67;7.30;;;8.10;79.50;;;;;;4970003;28;20633;-80
2024/01/01 01:26:40;;;;;;;19.67;9.30;;;8.10;79.50;;;;;;4972439;28;20201;-89
2024/01/01 01:29:09;;;;;;;14.73;9.93;;;8.10;79.50;;;;;;4982195;28;20225;-90
2024/01/01 01:31:38;;;;;;;8.53;7.70;;;8.10;79.60;;;;;;4982676;28;20201;-91
2024/01/01 01:34:06;;;;;;;21.40;9.17;;;8.00;79.50;;;;;;4980166;28;20190;-90
2024/01/01 01:36:35;;;;;;;14.93;11.20;;;8.00;79.50;;;;;;4981283;28;20211;-90
2024/01/01 01:39:04;;;;;;;9.07;8.17;;;8.00;79.50;;;;;;4981960;28;20292;-90
2024/01/01 01:41:37;;;;;;;6.13;5.53;;;7.90;79.50;;;;;;4990003;28;20231;-91
2024/01/01 01:44:06;;;;;;;7.23;6.53;;;7.90;79.60;;;;;;4981180;28;20209;-91
2024/01/01 01:46:35;;;;;;;10.67;6.90;;;7.90;79.50;;;;;;4980272;28;20701;-91
2024/01/01 01:49:05;;;;;;;12.00;6.67;;;7.90;79.50;;;;;;4980770;28;20209;-91
2024/01/01 01:51:33;;;;;;;8.43;6.97;;;7.90;79.60;;;;;;4974966;28;20221;-87
2024/01/01 01:54:02;;;;;;;9.83;8.87;;;7.90;79.60;;;;;;4971025;28;20218;-88
2024/01/01 01:56:33;;;;;;;5.80;4.13;;;7.90;79.70;;;;;;4968486;28;20279;-87
2024/01/01 01:59:03;;;;;;;8.37;7.07;;;7.90;79.60;;;;;;4969218;28;20233;-92
2024/01/01 02:01:32;;;;;;;12.33;8.07;;;7.90;79.50;;;;;;4973814;28;20268;-87
2024/01/01 02:04:01;;;;;;;9.20;8.47;;;7.90;79.40;;;;;;4969126;28;20198;-87
2024/01/01 02:06:29;;;;;;;10.63;8.23;;;7.80;79.30;;;;;;4969109;28;20300;-86
2024/01/01 02:09:01;;;;;;;9.63;7.77;;;7.80;79.40;;;;;;4968688;28;20619;-87
2024/01/01 02:11:30;;;;;;;20.70;10.47;;;7.80;79.60;;;;;;4970385;28;20206;-87
2024/01/01 02:14:10;;;;;;;8.00;5.93;;;7.80;79.60;;;;;;4971547;28;20198;-87
2024/01/01 02:16:40;;;;;;;16.40;7.80;;;7.80;79.60;;;;;;4970307;28;20233;-87
2024/01/01 02:19:17;;;;;;;14.23;9.00;;;7.80;79.70;;;;;;4972246;28;21021;-86
2024/01/01 02:21:46;;;;;;;8.57;6.97;;;7.70;79.60;;;;;;4975956;28;20219;-85
2024/01/01 02:24:16;;;;;;;8.07;7.27;;;7.70;79.60;;;;;;4971687;28;20216;-87
2024/01/01 02:26:46;;;;;;;15.80;8.20;;;7.70;79.60;;;;;;4972365;28;20617;-87
2024/01/01 02:29:15;;;;;;;20.53;6.63;;;7.60;79.70;;;;;;4985550;28;20197;-87
2024/01/01 02:31:45;;;;;;;8.40;6.33;;;7.60;79.70;;;;;;4972189;28;20670;-87
2024/01/01 02:34:14;;;;;;;8.53;5.83;;;7.60;79.70;;;;;;4970518;28;20280;-80
2024/01/01 02:36:43;;;;;;;7.63;6.73;;;7.60;79.70;;;;;;4982693;28;20743;-79
2024/01/01 02:39:12;;;;;;;15.57;8.27;;;7.50;79.70;;;;;;4971831;28;20199;-80
2024/01/01 02:41:42;;;;;;;8.50;5.80;;;7.50;79.80;;;;;;4972712;28;20235;-80
2024/01/01 02:44:11;;;;;;;9.47;7.77;;;7.50;79.70;;;;;;4969691;28;20228;-80
2024/01/01 02:46:39;;;;;;;13.30;7.63;;;7.50;79.60;;;;;;4969434;28;20591;-80
2024/01/01 02:49:08;;;;;;;13.33;8.03;;;7.40;79.60;;;;;;4961013;28;20946;-80
2024/01/01 02:51:36;;;;;;;15.23;7.00;;;7.40;79.70;;;;;;4966381;28;20597;-80
2024/01/01 02:54:05;;;;;;;9.03;7.07;;;7.40;79.70;;;;;;4969796;28;20664;-80
2024/01/01 02:56:34;;;;;;;18.20;6.90;;;7.40;79.80;;;;;;4968584;28;20293;-80
2024/01/01 02:59:04;;;;;;;6.33;4.70;;;7.40;79.80;;;;;;4963495;28;20252;-80
2024/01/01 03:01:32;;;;;;;10.30;7.20;;;7.30;79.80;;;;;;4970268;28;20644;-80
2024/01/01 03:04:01;;;;;;;2.87;2.63;;;7.30;79.70;;;;;;4961458;28;20236;-80
2024/01/01 03:06:29;;;;;;;6.30;4.33;;;7.30;79.70;;;;;;4967553;28;20235;-83
2024/01/01 03:09:00;;;;;;;6.63;6.03;;;7.30;79.70;;;;;;4959281;28;20264;-80
2024/01/01 03:11:29;;;;;;;5.87;5.27;;;7.30;79.70;;;;;;4966971;28;20209;-80
2024/01/01 03:13:57;;;;;;;9.40;6.07;;;7.30;79.80;;;;;;4969246;28;20204;-81
2024/01/01 03:16:27;;;;;;;8.33;6.77;;;7.30;79.90;;;;;;4975408;28;20759;-80
2024/01/01 03:18:56;;;;;;;14.20;6.77;;;7.30;80.00;;;;;;4967716;28;20405;-81
2024/01/01 03:21:25;;;;;;;9.67;6.93;;;7.30;79.90;;;;;;4965374;28;20254;-80
2024/01/01 03:23:53;;;;;;;6.10;4.40;;;7.30;79.90;;;;;;4965930;28;20296;-80
2024/01/01 03:26:23;;;;;;;3.50;3.20;;;7.30;79.90;;;;;;4966858;28;20222;-81
2024/01/01 03:28:51;;;;;;;15.27;6.37;;;7.30;79.90;;;;;;4964704;28;20209;-80
2024/01/01 03:31:20;;;;;;;6.53;5.93;;;7.30;79.90;;;;;;4966545;28;20209;-80
2024/01/01 03:33:50;;;;;;;11.67;5.30;;;7.30;79.90;;;;;;4966367;28;20581;-80
2024/01/01 03:36:19;;;;;;;11.43;4.90;;;7.20;79.70;;;;;;4970695;28;20605;-80
2024/01/01 03:38:47;;;;;;;4.87;4.23;;;7.20;79.70;;;;;;4968556;28;20219;-80
2024/01/01 03:41:16;;;;;;;10.67;4.97;;;7.20;79.70;;;;;;4968843;28;20227;-80
2024/01/01 03:43:44;;;;;;;7.00;4.57;;;7.20;79.70;;;;;;4963020;28;20404;-81
2024/01/01 03:46:13;;;;;;;4.73;4.30;;;7.20;79.70;;;;;;4966168;28;20219;-81
2024/01/01 03:48:42;;;;;;;6.10;3.97;;;7.20;79.70;;;;;;4964698;28;20290;-81
2024/01/01 03:51:13;;;;;;;7.13;5.50;;;7.20;79.70;;;;;;4966775;28;20202;-81
2024/01/01 03:53:41;;;;;;;13.30;5.33;;;7.20;79.70;;;;;;4967292;28;20202;-81
2024/01/01 03:56:10;;;;;;;5.13;3.33;;;7.20;79.70;;;;;;4964325;28;20208;-80
2024/01/01 03:58:39;;;;;;;2.93;2.70;;;7.20;79.70;;;;;;4959242;28;20701;-81
2024/01/01 04:01:13;;;;;;;6.33;3.70;;;7.20;79.70;;;;;;4971025;28;20219;-84
2024/01/01 04:03:42;;;;;;;13.40;6.43;;;7.10;79.60;;;;;;4963829;28;20208;-84
2024/01/01 04:06:12;;;;;;;7.53;6.93;;;7.10;79.70;;;;;;4964171;28;20207;-84
2024/01/01 04:08:41;;;;;;;20.90;5.03;;;7.10;79.70;;;;;;4966565;28;20316;-79
2024/01/01 04:11:10;;;;;;;6.00;5.27;;;7.10;79.60;;;;;;4969510;28;20204;-80
2024/01/01 04:13:38;;;;;;;6.37;5.07;;;7.10;79.60;;;;;;4962351;28;20205;-79
2024/01/01 04:16:08;;;;;;;7.83;5.33;;;7.10;79.60;;;;;;4964372;28;20318;-79
2024/01/01 04:18:37;;;;;;;5.60;4.97;;;7.10;79.60;;;;;;4969084;28;20205;-80
2024/01/01 04:21:05;;;;;;;7.53;4.87;;;7.00;79.50;;;;;;4972500;28;20202;-81
2024/01/01 04:23:35;;;;;;;5.53;5.00;;;7.10;79.60;;;;;;4967061;28;20656;-81
2024/01/01 04:26:04;;;;;;;5.27;4.80;;;7.10;79.70;;;;;;4964499;28;20193;-80
2024/01/01 04:28:33;;;;;;;6.70;4.77;;;7.10;80.00;;;;;;4967551;28;20260;-80
2024/01/01 04:31:01;;;;;;;11.30;6.10;;;7.10;80.10;;;;;;4961310;28;20216;-80
2024/01/01 04:33:30;;;;;;;7.00;5.47;;;7.10;80.20;;;;;;4965638;28;20275;-80
2024/01/01 04:35:59;;;;;;;6.27;5.03;;;7.10;80.20;;;;;;4967661;28;20212;-80
2024/01/01 04:38:28;;;;;;;6.77;3.60;;;7.10;80.40;;;;;;4964554;28;20202;-79
2024/01/01 04:40:58;;;;;;;8.63;5.13;;;7.10;80.50;;;;;;4967536;28;20296;-79
2024/01/01 04:43:27;;;;;;;9.57;7.10;;;7.10;80.80;;;;;;4964543;28;20238;-81
2024/01/01 04:45:55;;;;;;;4.13;3.80;;;7.10;80.90;;;;;;4962707;28;20220;-79
2024/01/01 04:48:24;;;;;;;5.03;4.27;;;7.10;80.80;;;;;;4961944;28;20205;-80
2024/01/01 04:50:52;;;;;;;2.67;2.07;;;7.10;80.70;;;;;;4966295;28;20295;-81
2024/01/01 04:53:28;;;;;;;4.10;3.37;;;7.10;80.70;;;;;;4966101;28;20240;-81
2024/01/01 04:55:58;;;;;;;3.20;3.00;;;7.10;80.70;;;;;;4971513;28;20583;-80
2024/01/01 04:58:27;;;;;;;8.97;8.03;;;7.10;80.80;;;;;;4965700;28;20206;-80
2024/01/01 05:00:56;;;;;;;6.50;3.90;;;7.10;81.30;;;;;;4968311;28;20227;-80
2024/01/01 05:03:24;;;;;;;8.63;5.80;;;7.20;82.10;;;;;;4965411;28;20228;-80
2024/01/01 05:05:53;;;;;;;7.63;5.47;;;7.10;81.40;;;;;;4972618;28;20583;-79
2024/01/01 05:08:21;;;;;;;12.47;5.83;;;7.20;81.70;;;;;;4965616;28;20283;-80
2024/01/01 05:10:50;;;;;;;5.83;5.33;;;7.20;81.60;;;;;;4966130;28;20209;-80
2024/01/01 05:13:19;;;;;;;9.00;4.63;;;7.10;81.70;;;;;;4974316;28;20290;-80
2024/01/01 05:15:48;;;;;;;4.80;4.40;;;7.10;81.50;;;;;;4968510;28;20219;-80
2024/01/01 05:18:17;;;;;;;6.67;4.60;;;7.10;81.30;;;;;;4970726;28;20232;-80
2024/01/01 05:20:45;;;;;;;5.70;4.60;;;7.20;81.30;;;;;;4972979;28;20649;-80
2024/01/01 05:23:14;;;;;;;6.10;4.90;;;7.20;81.10;;;;;;4968461;28;20224;-80
2024/01/01 05:25:43;;;;;;;7.97;5.00;;;7.20;81.00;;;;;;4973323;28;20728;-80
2024/01/01 05:28:12;;;;;;;3.87;3.47;;;7.10;80.80;;;;;;4968184;28;20217;-79
2024/01/01 05:30:41;;;;;;;4.37;3.73;;;7.10;80.80;;;;;;4965240;28;20204;-80
2024/01/01 05:33:10;;;;;;;6.00;5.00;;;7.10;80.70;;;;;;4964198;28;20308;-80
2024/01/01 05:35:39;;;;;;;2.97;2.77;;;7.10;80.70;;;;;;4972098;28;20294;-79
2024/01/01 05:38:07;;;;;;;6.83;6.07;;;7.10;80.70;;;;;;4971000;28;20215;-80
2024/01/01 05:40:38;;;;;;;4.77;4.37;;;7.00;80.70;;;;;;4967215;28;20204;-80
2024/01/01 05:43:07;;;;;;;9.27;5.80;;;7.10;80.70;;;;;;4964225;28;20462;-80
2024/01/01 05:45:36;;;;;;;5.20;3.87;;;7.00;81.10;;;;;;4971072;28;20211;-80
2024/01/01 05:48:07;;;;;;;3.73;3.43;;;7.10;81.20;;;;;;4963151;28;20201;-80
2024/01/01 05:50:49;;;;;;;3.33;3.13;;;7.00;81.10;;;;;;4970447;28;20646;-81
2024/01/01 05:53:18;;;;;;;15.40;5.63;;;7.10;81.00;;;;;;4966537;28;20290;-81
2024/01/01 05:55:47;;;;;;;6.00;5.40;;;7.00;80.90;;;;;;4966550;28;20220;-81
2024/01/01 05:58:15;;;;;;;4.40;3.70;;;7.00;80.80;;;;;;4970024;28;20219;-81
2024/01/01 06:00:45;;;;;;;3.60;3.07;;;7.00;80.80;;;;;;4964514;28;20212;-81
2024/01/01 06:03:15;;;;;;;7.17;3.30;;;7.00;80.70;;;;;;4969485;28;20225;-81
2024/01/01 06:05:44;;;;;;;5.13;3.40;;;7.00;80.70;;;;;;4968418;28;20206;-80
2024/01/01 06:08:12;;;;;;;7.07;3.83;;;7.00;80.70;;;;;;4967706;28;20292;-81
2024/01/01 06:10:42;;;;;;;4.60;3.23;;;7.00;80.70;;;;;;4968576;28;20205;-81
2024/01/01 06:13:10;;;;;;;5.27;4.63;;;7.00;80.80;;;;;;4970775;28;20217;-81
2024/01/01 06:15:42;;;;;;;4.13;3.67;;;7.10;80.90;;;;;;4963085;28;20275;-81
2024/01/01 06:18:12;;;;;;;8.80;6.57;;;7.20;80.90;;;;;;4982138;28;20204;-80
2024/01/01 06:20:58;;;;;;;5.93;4.23;;;7.10;80.70;;;;;;4964716;28;20211;-83
2024/01/01 06:23:27;;;;;;;3.93;3.57;;;7.10;80.60;;;;;;4964624;28;20603;-82
2024/01/01 06:25:58;;;;;;;7.50;5.43;;;7.20;80.60;;;;;;4966383;28;20196;-81
2024/01/01 06:28:30;;;;;;;9.13;6.70;;;7.20;80.60;;;;;;4968080;28;21757;-80
2024/01/01 06:31:03;;;;;;;3.03;2.80;;;7.20;80.60;;;;;;4967576;28;20209;-87
2024/01/01 06:33:40;;;;;;;6.83;5.60;;;7.20;80.70;;;;;;4971776;28;20212;-88
2024/01/01 06:36:13;;;;;;;4.73;3.93;;;7.30;80.70;;;;;;4972102;28;20239;-89
2024/01/01 06:38:42;;;;;;;6.33;3.97;;;7.30;80.60;;;;;;4974601;28;20201;-89
2024/01/01 06:41:11;;;;;;;14.13;5.23;;;7.40;80.60;;;;;;4965947;28;20197;-90
2024/01/01 06:43:48;;;;;;;3.30;3.00;;;7.50;80.60;;;;;;4970019;28;20216;-82
2024/01/01 06:46:18;;;;;;;4.53;4.13;;;7.50;80.50;;;;;;4966775;28;20226;-80
2024/01/01 06:48:46;;;;;;;6.73;5.97;;;7.50;80.50;;;;;;4962296;28;20650;-80
2024/01/01 06:51:19;;;;;;;7.20;5.07;;;7.50;80.30;;;;;;4969697;28;20201;-90
2024/01/01 06:53:47;;;;;;;4.13;3.03;;;7.50;80.30;;;;;;4972534;28;20282;-89
2024/01/01 06:56:20;;;;;;;8.60;5.27;;;7.50;80.40;;;;;;4972231;28;20197;-88
2024/01/01 06:58:48;;;;;;;5.17;3.77;;;7.50;80.40;;;;;;4966616;28;20249;-87
2024/01/01 07:01:21;;;;;;;5.27;4.77;;;7.60;80.30;;;;;;4969553;28;20206;-87
2024/01/01 07:03:52;;;;;;;7.87;3.90;;;7.60;80.30;;;;;;4972101;28;20259;-88
2024/01/01 07:06:27;;;;;;;5.07;4.67;;;7.60;80.10;;;;;;4965906;28;20210;-86
2024/01/01 07:09:02;;;;;;;6.57;4.00;;;7.60;80.00;;;;;;4969661;28;20198;-88
2024/01/01 07:11:30;;;;;;;8.53;4.83;;;7.60;80.80;;;;;;4976071;28;20193;-80
2024/01/01 07:14:03;;;;;;;6.07;4.33;;;7.60;79.90;;;;;;4968740;28;20578;-82
2024/01/01 07:16:44;;;;;;;7.07;5.60;;;7.60;79.90;;;;;;4969839;28;20211;-82
2024/01/01 07:19:12;;;;;;;5.73;3.93;;;7.60;79.90;;;;;;4978333;28;20255;-82
2024/01/01 07:21:43;;;;;;;7.93;6.30;;;7.70;80.00;;;;;;4975182;28;20195;-86
2024/01/01 07:24:12;;;;;;;4.77;4.33;;;7.70;80.00;;;;;;4972096;28;20220;-87
2024/01/01 07:26:41;;;;;;;4.57;4.17;;;7.80;80.00;;;;;;4973660;28;20598;-89
2024/01/01 07:29:12;;;;;;;11.20;5.83;;;7.90;80.10;;;;;;4971448;28;20240;-86
2024/01/01 07:31:43;;;;;;;3.73;3.40;;;7.90;80.10;;;;;;4979931;28;20201;-85
2024/01/01 07:34:22;;;;;;;5.13;3.77;;;8.00;80.20;;;;;;4970780;28;20204;-88
2024/01/01 07:36:57;;;;;;;4.80;3.57;;;8.00;80.20;;;;;;4972988;28;20575;-91
2024/01/01 07:39:29;;;;;;;5.37;4.73;;;8.10;80.20;;;;;;4974621;28;20232;-91
2024/01/01 07:41:58;;;;;;;4.67;3.20;;;8.10;80.40;;;;;;4968654;28;20269;-87
2024/01/01 07:44:27;;;;;;;3.87;3.50;;;8.20;80.50;;;;;;4973230;28;20217;-92
2024/01/01 07:47:02;;;;;;;4.83;3.17;;;8.30;80.70;;;;;;4974292;28;20202;-90
2024/01/01 07:49:31;;;;;;;6.63;3.97;;;8.40;80.80;;;;;;4972828;28;20209;-90
2024/01/01 07:52:02;;;;;;;4.53;4.13;;;8.50;80.90;;;;;;4971587;28;20220;-90
2024/01/01 07:54:31;;;;;;;3.57;2.53;;;8.60;81.00;;;;;;4976277;28;20786;-92
2024/01/01 07:57:00;;;;;;;2.33;1.37;;;8.60;81.00;;;;;;4974382;28;20198;-91
2024/01/01 07:59:29;;;;;;;6.13;2.13;;;8.70;81.10;;;;;;4973975;28;20237;-86
2024/01/01 08:01:58;;;;;;;3.97;2.63;;;8.70;81.00;;;;;;4974267;28;20221;-87
2024/01/01 08:04:27;;;;;;;4.53;3.40;;;8.80;81.00;;;;;;4970642;28;20221;-89
2024/01/01 08:06:56;;;;;;;2.37;2.07;;;8.90;80.90;;;;;;4977538;28;20216;-89
2024/01/01 08:09:26;;;;;;;1.30;1.20;;;8.90;80.80;;;;;;4973145;28;20253;-87
2024/01/01 08:11:55;;;;;;;13.87;2.80;;;9.00;80.80;;;;;;4979143;28;20201;-89
2024/01/01 08:14:24;;;;;;;2.93;2.30;;;9.00;80.70;;;;;;4973439;28;20322;-89
2024/01/01 08:16:53;;;;;;;9.37;3.63;;;9.10;80.70;;;;;;4984676;28;20241;-90
2024/01/01 08:19:22;;;;;;;4.17;3.73;;;9.20;80.60;;;;;;4975501;28;20265;-90
2024/01/01 08:21:51;;;;;;;5.53;3.97;;;9.30;80.60;;;;;;4972594;28;20637;-90
2024/01/01 08:24:20;;;;;;;4.90;4.43;;;9.30;80.70;;;;;;4971416;28;20774;-91
2024/01/01 08:26:50;;;;;;;5.30;3.43;;;9.40;80.80;;;;;;4975612;28;22481;-92
2024/01/01 08:29:19;;;;;;;7.23;4.80;;;9.40;80.70;;;;;;4966739;28;20216;-91
2024/01/01 08:31:48;;;;;;;3.87;3.57;;;9.50;80.80;;;;;;4974605;28;20217;-89
2024/01/01 08:34:16;;;;;;;10.77;3.57;;;9.60;80.90;;;;;;4973935;28;20233;-89
2024/01/01 08:36:45;;;;;;;8.17;4.43;;;9.60;80.90;;;;;;4972131;28;20222;-91
2024/01/01 08:39:14;;;;;;;7.97;3.33;;;9.60;80.90;;;;;;4974344;28;20190;-91
2024/01/01 08:41:44;;;;;;;5.20;4.70;;;9.70;80.90;;;;;;4978801;28;20565;-90
2024/01/01 08:44:14;;;;;;;5.20;4.20;;;9.70;80.80;;;;;;4976986;28;20234;-89
2024/01/01 08:46:43;;;;;;;4.97;3.27;;;9.70;80.60;;;;;;4975835;28;20198;-92
2024/01/01 08:49:12;;;;;;;8.67;5.70;;;9.80;80.50;;;;;;4974894;28;21025;-92
2024/01/01 08:51:41;;;;;;;5.60;4.77;;;9.80;80.50;;;;;;4979484;28;20214;-92
2024/01/01 08:54:13;;;;;;;5.57;4.30;;;9.90;80.50;;;;;;4979182;28;20282;-89
2024/01/01 08:56:43;;;;;;;6.37;3.87;;;9.90;80.50;;;;;;4975981;28;20229;-90
2024/01/01 08:59:15;;;;;;;8.00;4.27;;;9.90;80.50;;;;;;4977198;28;20221;-88
2024/01/01 09:01:45;;;;;;;5.70;5.23;;;10.00;80.80;;;;;;4973817;28;20365;-90
2024/01/01 09:04:17;;;;;;;5.90;4.97;;;10.00;80.80;;;;;;4971455;28;20289;-90
2024/01/01 09:06:46;;;;;;;11.30;4.90;;;10.10;81.00;;;;;;4971354;28;20202;-86
2024/01/01 09:09:15;;;;;;;3.73;3.00;;;10.20;81.30;;;;;;4977425;28;20233;-86
2024/01/01 09:11:47;;;;;;;5.47;4.23;;;10.20;81.60;;;;;;4976387;28;20201;-86
2024/01/01 09:14:17;;;;;;;5.40;3.67;;;10.30;81.60;;;;;;4971811;28;20194;-88
2024/01/01 09:16:47;;;;;;;8.77;5.67;;;10.40;81.80;;;;;;4977173;28;20197;-88
2024/01/01 09:19:16;;;;;;;6.27;4.57;;;10.50;81.80;;;;;;4974004;28;20201;-88
2024/01/01 09:21:46;;;;;;;11.10;5.20;;;10.50;82.00;;;;;;4969597;28;20206;-89
2024/01/01 09:24:15;;;;;;;6.43;5.13;;;10.60;82.20;;;;;;4969491;28;20343;-86
2024/01/01 09:26:43;;;;;;;7.50;3.27;;;10.70;82.20;;;;;;4976162;28;20205;-85
2024/01/01 09:29:12;;;;;;;4.10;3.70;;;10.70;82.30;;;;;;4972174;28;20190;-85
2024/01/01 09:31:43;;;;;;;6.00;3.27;;;10.80;82.50;;;;;;4977907;28;20198;-87
2024/01/01 09:34:12;;;;;;;4.30;3.60;;;10.90;82.20;;;;;;4974731;28;20205;-90
2024/01/01 09:36:41;;;;;;;12.70;4.93;;;11.00;82.30;;;;;;4975999;28;20210;-89
2024/01/01 09:39:28;;;;;;;4.27;3.43;;;11.00;82.10;;;;;;4973519;28;20225;-89
2024/01/01 09:41:57;;;;;;;6.37;4.23;;;11.20;82.10;;;;;;4983917;28;20196;-90
2024/01/01 09:44:45;;;;;;;9.43;4.43;;;11.30;81.90;;;;;;4979423;28;20527;-90
2024/01/01 09:47:22;;;;;;;6.43;4.43;;;11.40;82.10;;;;;;4975822;28;20214;-93
2024/01/01 09:49:51;;;;;;;3.87;2.60;;;11.40;81.60;;;;;;4975668;28;20210;-91
2024/01/01 09:52:27;;;;;;;4.93;3.10;;;11.50;81.70;;;;;;4980103;28;20225;-89
2024/01/01 09:54:57;;;;;;;7.17;3.27;;;11.60;81.70;;;;;;4981008;28;20213;-87
2024/01/01 09:57:26;;;;;;;4.07;3.20;;;11.70;81.70;;;;;;4977744;28;20208;-86
2024/01/01 09:59:54;;;;;;;7.13;3.27;;;11.80;81.60;;;;;;4972008;28;20728;-85
2024/01/01 10:02:28;;;;;;;8.73;2.63;;;11.80;81.10;;;;;;4979928;28;20591;-86
2024/01/01 10:05:11;;;;;;;5.73;3.43;;;11.90;80.80;;;;;;4972591;28;20230;-89
2024/01/01 10:07:40;;;;;;;7.77;4.37;;;12.00;80.60;;;;;;4970631;28;20233;-92
2024/01/01 10:10:10;;;;;;;5.47;3.87;;;12.00;80.50;;;;;;4975644;28;20214;-88
2024/01/01 10:12:45;;;;;;;3.03;2.50;;;12.10;80.40;;;;;;4973489;28;20194;-86
2024/01/01 10:15:14;;;;;;;3.23;2.63;;;12.20;80.50;;;;;;4967935;28;20680;-84
2024/01/01 10:17:44;;;;;;;4.73;3.50;;;12.30;80.20;;;;;;4978170;28;20669;-87
2024/01/01 10:20:13;;;;;;;3.97;3.33;;;12.40;80.10;;;;;;4965510;28;20201;-91
2024/01/01 10:22:42;;;;;;;3.97;3.30;;;12.50;79.90;;;;;;4977623;28;20565;-90
2024/01/01 10:25:13;;;;;;;3.10;2.80;;;12.50;80.10;;;;;;4975905;28;20788;-92
2024/01/01 10:27:44;;;;;;;4.30;3.27;;;12.60;80.00;;;;;;4971434;28;20248;-90
2024/01/01 10:30:14;;;;;;;6.40;3.77;;;12.60;79.90;;;;;;4971487;28;20212;-89
2024/01/01 10:32:46;;;;;;;6.77;3.47;;;12.70;79.60;;;;;;4977475;28;20194;-91
2024/01/01 10:35:16;;;;;;;8.03;3.50;;;12.70;79.40;;;;;;4972799;28;20188;-87
2024/01/01 10:37:45;;;;;;;4.63;2.47;;;12.70;79.10;;;;;;4974005;28;20202;-82
2024/01/01 10:40:15;;;;;;;5.03;3.17;;;12.80;79.20;;;;;;4968186;28;20201;-85
2024/01/01 10:42:49;;;;;;;6.33;3.13;;;12.90;79.20;;;;;;4963391;28;20205;-84
2024/01/01 10:45:19;;;;;;;2.87;2.50;;;12.80;79.00;;;;;;4963061;28;20652;-82
2024/01/01 10:47:52;;;;;;;7.73;4.10;;;12.80;78.80;;;;;;4976447;28;20751;-85
2024/01/01 10:50:28;;;;;;;7.07;3.57;;;12.80;78.90;;;;;;4967683;28;20648;-82
2024/01/01 10:53:07;;;;;;;7.63;3.87;;;12.80;79.10;;;;;;4970363;28;20272;-81
2024/01/01 10:55:52;;;;;;;2.73;2.47;;;12.80;79.20;;;;;;4972514;28;21200;-82
2024/01/01 10:58:34;;;;;;;6.57;3.20;;;12.80;79.10;;;;;;4967807;28;20202;-81
2024/01/01 11:01:06;;;;;;;4.47;2.93;;;12.80;78.80;;;;;;4966664;28;20206;-82
2024/01/01 11:03:37;;;;;;;4.30;2.83;;;12.90;79.10;;;;;;4969775;28;20214;-81
2024/01/01 11:06:26;;;;;;;3.53;3.20;;;12.90;79.00;;;;;;4971102;28;20224;-82
2024/01/01 11:08:56;;;;;;;3.70;2.70;;;13.00;79.10;;;;;;4975514;28;20193;-85
2024/01/01 11:11:27;;;;;;;3.73;2.70;;;13.00;79.00;;;;;;4965912;28;20254;-84
2024/01/01 11:13:56;;;;;;;7.13;3.07;;;13.00;78.80;;;;;;4970292;28;20229;-83
2024/01/01 11:16:26;;;;;;;9.80;3.40;;;13.10;78.80;;;;;;4968159;28;20217;-79
2024/01/01 11:18:56;;;;;;;3.20;2.90;;;13.20;79.00;;;;;;4970891;28;20406;-82
2024/01/01 11:21:32;;;;;;;3.40;2.23;;;13.30;78.80;;;;;;4969342;28;20209;-80
2024/01/01 11:24:02;;;;;;;6.33;3.37;;;13.30;78.40;;;;;;4967286;28;20205;-84
2024/01/01 11:26:35;;;;;;;4.53;3.33;;;13.40;78.10;;;;;;4971753;28;20328;-83
2024/01/01 11:29:06;;;;;;;7.60;3.60;;;13.40;77.80;;;;;;4969533;28;20237;-81
2024/01/01 11:31:36;;;;;;;2.87;2.37;;;13.40;77.50;;;;;;4968148;28;20601;-82
2024/01/01 11:34:07;;;;;;;8.13;3.97;;;13.40;77.60;;;;;;4961823;28;20218;-83
2024/01/01 11:36:53;;;;;;;6.50;4.20;;;13.40;77.10;;;;;;4967785;28;20228;-83
2024/01/01 11:39:24;;;;;;;16.60;4.20;;;13.40;77.40;;;;;;4971733;28;20277;-79
2024/01/01 11:41:56;;;;;;;4.10;2.77;;;13.50;77.60;;;;;;4979610;28;20685;-81
2024/01/01 11:44:25;;;;;;;4.20;3.17;;;13.50;77.30;;;;;;4968628;28;20205;-83
2024/01/01 11:46:56;;;;;;;1.77;1.67;;;13.60;77.30;;;;;;4963728;28;20261;-81
2024/01/01 11:49:27;;;;;;;2.93;2.23;;;13.60;77.30;;;;;;4974339;28;20204;-81
2024/01/01 11:51:59;;;;;;;2.17;1.97;;;13.70;77.50;;;;;;4972968;28;20198;-83
2024/01/01 11:54:28;;;;;;;3.30;2.57;;;13.70;77.60;;;;;;4970685;28;20197;-82
2024/01/01 11:56:59;;;;;;;4.13;2.33;;;13.60;77.50;;;;;;4969034;28;20288;-87
2024/01/01 11:59:30;;;;;;;5.03;2.83;;;13.60;77.60;;;;;;4973075;28;20312;-87
2024/01/01 12:02:00;;;;;;;5.63;3.60;;;13.70;77.60;;;;;;4968397;28;20595;-84
2024/01/01 12:04:30;;;;;;;5.70;3.20;;;13.70;77.40;;;;;;4968675;28;20726;-84
2024/01/01 12:06:59;;;;;;;2.87;2.07;;;13.70;77.30;;;;;;4982159;28;20240;-85
2024/01/01 12:09:30;;;;;;;3.80;2.47;;;13.70;77.30;;;;;;4976436;28;20571;-84
2024/01/01 12:12:05;;;;;;;2.50;2.30;;;13.70;77.30;;;;;;4978734;28;20256;-84
2024/01/01 12:14:34;;;;;;;5.80;2.00;;;13.70;77.30;;;;;;4977270;28;20232;-84
2024/01/01 12:17:06;;;;;;;3.47;2.47;;;13.80;77.10;;;;;;4981319;28;20219;-84
2024/01/01 12:19:37;;;;;;;4.33;2.50;;;13.80;77.00;;;;;;4973281;28;20206;-84
2024/01/01 12:22:05;;;;;;;2.90;2.20;;;13.90;76.90;;;;;;4971903;28;20194;-81
2024/01/01 12:24:35;;;;;;;10.60;3.33;;;13.90;76.10;;;;;;4974829;28;20197;-85
2024/01/01 12:27:04;;;;;;;3.60;2.33;;;13.80;76.30;;;;;;4971795;28;20226;-85
2024/01/01 12:29:33;;;;;;;3.23;2.93;;;13.90;76.60;;;;;;4972632;28;20208;-84
2024/01/01 12:32:02;;;;;;;2.87;2.63;;;13.90;76.60;;;;;;4970063;28;20264;-84
2024/01/01 12:34:31;;;;;;;3.30;2.13;;;13.80;76.90;;;;;;4965686;28;20198;-83
2024/01/01 12:37:06;;;;;;;4.13;2.47;;;13.90;77.10;;;;;;4969880;28;20194;-83
2024/01/01 12:39:39;;;;;;;1.63;1.53;;;13.90;77.10;;;;;;4969551;28;20280;-83
2024/01/01 12:42:08;;;;;;;2.97;2.67;;;13.90;77.30;;;;;;4973615;28;20566;-82
2024/01/01 12:44:39;;;;;;;3.63;2.67;;;13.90;77.30;;;;;;4970416;28;20200;-83
2024/01/01 12:47:14;;;;;;;2.53;2.30;;;13.90;77.60;;;;;;4977075;28;20761;-85
2024/01/01 12:49:46;;;;;;;7.77;2.57;;;13.90;77.80;;;;;;4973373;28;20193;-83
2024/01/01 12:52:31;;;;;;;2.03;1.83;;;14.00;78.00;;;;;;4973034;28;20670;-81
2024/01/01 12:57:47;;;;;;;4.37;2.87;;;14.10;78.20;;;;;;4968315;28;20201;-83
2024/01/01 13:00:18;;;;;;;3.50;2.17;;;14.10;78.00;;;;;;4978082;28;20265;-83
2024/01/01 13:02:46;;;;;;;3.60;2.60;;;14.10;78.10;;;;;;4975932;28;20227;-81
2024/01/01 13:05:15;;;;;;;4.60;3.50;;;14.10;78.20;;;;;;4971541;28;20229;-83
2024/01/01 13:07:46;;;;;;;2.53;2.33;;;14.20;78.20;;;;;;4972136;28;20257;-83
2024/01/01 13:10:14;;;;;;;8.23;2.67;;;14.10;78.00;;;;;;4972851;28;20573;-83